createdAt,value
2018-03-20T07:00:22.501Z,61.61
2018-03-20T07:02:49.986Z,62.01
2018-03-20T07:05:18.181Z,61.47
2018-03-20T07:07:46.223Z,61.39
2018-03-20T07:10:13.644Z,60.89
2018-03-20T07:12:41.121Z,60.89
2018-03-20T07:15:09.192Z,60.55
2018-03-20T07:17:36.662Z,60.63
2018-03-20T07:20:04.157Z,60.59
2018-03-20T07:22:31.608Z,61.15
2018-03-20T07:24:59.669Z,60.92
2018-03-20T07:27:27.122Z,60.42
2018-03-20T07:29:56.718Z,60.17
2018-03-20T07:32:24.224Z,60.21
2018-03-20T07:34:51.673Z,60.20
2018-03-20T07:37:19.161Z,60.46
2018-03-20T07:39:46.665Z,60.62
2018-03-20T07:42:14.095Z,60.76
2018-03-20T07:44:41.513Z,60.23
2018-03-20T07:47:08.998Z,60.34
2018-03-20T07:49:36.466Z,59.88
2018-03-20T07:52:03.926Z,60.19
2018-03-20T07:54:31.513Z,60.33
2018-03-20T07:57:00.045Z,59.75
2018-03-20T07:59:27.644Z,59.27
2018-03-20T08:01:55.051Z,59.33
2018-03-20T08:04:22.514Z,59.85
2018-03-20T08:06:50.019Z,60.17
2018-03-20T08:09:17.482Z,60.04
2018-03-20T08:11:44.917Z,59.33
2018-03-20T08:14:12.408Z,59.11
2018-03-20T08:16:39.807Z,59.20
2018-03-20T08:19:07.506Z,58.82
2018-03-20T08:21:34.895Z,58.91
2018-03-20T08:24:02.450Z,58.46
2018-03-20T08:26:29.886Z,58.62
2018-03-20T08:28:57.472Z,58.38
2018-03-20T08:31:24.973Z,58.33
2018-03-20T08:33:52.437Z,58.37
2018-03-20T08:36:20.021Z,58.49
2018-03-20T08:38:47.676Z,57.75
2018-03-20T08:41:15.278Z,57.93
2018-03-20T08:43:42.721Z,57.47
2018-03-20T08:46:10.468Z,57.02
2018-03-20T08:48:37.892Z,56.43
2018-03-20T08:51:05.331Z,56.41
2018-03-20T08:53:32.807Z,56.58
2018-03-20T08:56:00.254Z,56.72
2018-03-20T08:58:27.655Z,56.90
2018-03-20T09:00:55.122Z,56.66
2018-03-20T09:03:22.623Z,56.37
2018-03-20T09:05:50.128Z,56.30
2018-03-20T09:08:17.569Z,55.85
2018-03-20T09:10:44.960Z,55.72
2018-03-20T09:13:12.384Z,56.07
2018-03-20T09:15:39.947Z,55.34
2018-03-20T09:18:07.540Z,55.07
2018-03-20T09:20:34.998Z,54.78
2018-03-20T09:23:02.431Z,54.21
2018-03-20T09:25:29.831Z,54.34
2018-03-20T09:27:57.277Z,54.84
2018-03-20T09:30:24.803Z,54.59
2018-03-20T09:32:52.358Z,54.12
2018-03-20T09:35:19.908Z,53.75
2018-03-20T09:37:47.348Z,53.52
2018-03-20T09:40:14.790Z,53.64
2018-03-20T09:42:42.245Z,53.69
2018-03-20T09:45:09.721Z,52.56
2018-03-20T09:47:37.148Z,52.18
2018-03-20T09:50:04.682Z,51.95
2018-03-20T09:52:32.148Z,51.92
2018-03-20T09:54:59.588Z,52.09
2018-03-20T09:57:27.059Z,51.32
2018-03-20T09:59:55.156Z,51.29
2018-03-20T10:02:22.667Z,51.88
2018-03-20T10:04:50.122Z,51.65
2018-03-20T10:07:17.709Z,51.16
2018-03-20T10:09:45.164Z,50.80
2018-03-20T10:12:12.595Z,50.59
2018-03-20T10:14:40.016Z,50.50
2018-03-20T10:17:07.613Z,50.54
2018-03-20T10:19:35.624Z,50.28
2018-03-20T10:22:03.145Z,48.73
2018-03-20T10:24:30.804Z,48.09
2018-03-20T10:26:58.196Z,46.47
2018-03-20T10:29:25.694Z,44.20
2018-03-20T10:31:53.173Z,42.70
2018-03-20T10:34:20.873Z,41.78
2018-03-20T10:36:48.310Z,40.62
2018-03-20T10:39:15.906Z,41.73
2018-03-20T10:41:43.339Z,42.55
2018-03-20T10:44:10.783Z,43.29
2018-03-20T10:46:38.190Z,44.53
2018-03-20T10:49:05.633Z,44.66
2018-03-20T10:51:33.051Z,44.81
2018-03-20T10:54:00.728Z,45.70
2018-03-20T10:56:28.278Z,45.83
2018-03-20T10:58:55.776Z,44.62
2018-03-20T11:01:28.852Z,43.61
2018-03-20T11:03:56.254Z,43.13
2018-03-20T11:06:23.809Z,41.35
2018-03-20T11:08:51.531Z,41.02
2018-03-20T11:11:18.985Z,40.38
2018-03-20T11:13:46.484Z,40.04
2018-03-20T11:16:14.003Z,40.33
2018-03-20T11:18:41.594Z,39.32
2018-03-20T11:21:09.123Z,38.59
2018-03-20T11:23:36.711Z,38.68
2018-03-20T11:26:04.232Z,39.14
2018-03-20T11:28:32.123Z,39.27
2018-03-20T11:30:59.630Z,39.40
2018-03-20T11:33:27.064Z,40.14
2018-03-20T11:35:54.485Z,40.79
2018-03-20T11:38:22.172Z,40.73
2018-03-20T11:40:50.411Z,39.57
2018-03-20T11:43:17.888Z,38.96
2018-03-20T11:45:45.436Z,39.43
2018-03-20T11:48:12.933Z,39.16
2018-03-20T11:50:40.413Z,38.83
2018-03-20T11:53:08.449Z,38.94
2018-03-20T11:55:35.869Z,39.67
2018-03-20T11:58:03.318Z,38.99
2018-03-20T12:00:31.156Z,38.56
2018-03-20T12:02:58.737Z,38.91
2018-03-20T12:05:26.211Z,39.81
2018-03-20T12:07:55.255Z,39.08
2018-03-20T12:10:23.661Z,37.99
2018-03-20T12:12:51.294Z,36.66
2018-03-20T12:15:18.758Z,37.24
2018-03-20T12:17:46.623Z,37.71
2018-03-20T12:20:14.096Z,37.94
2018-03-20T12:22:41.550Z,38.54
2018-03-20T12:27:42.952Z,36.70
2018-03-20T12:30:10.565Z,37.35
2018-03-20T12:32:37.972Z,37.18
2018-03-20T12:35:05.478Z,36.88
2018-03-20T12:37:33.172Z,35.48
2018-03-20T12:40:00.610Z,34.94
2018-03-20T12:42:28.834Z,34.70
2018-03-20T12:44:56.358Z,34.66
2018-03-20T12:47:23.871Z,34.36
2018-03-20T12:49:51.293Z,34.61
2018-03-20T12:52:19.006Z,34.86
2018-03-20T12:54:46.529Z,34.74
2018-03-20T12:57:13.975Z,34.56
2018-03-20T12:59:41.676Z,34.58
2018-03-20T13:02:09.216Z,33.67
2018-03-20T13:04:36.807Z,33.74
2018-03-20T13:07:04.389Z,33.84
2018-03-20T13:09:32.007Z,33.80
2018-03-20T13:11:59.548Z,33.21
2018-03-20T13:14:27.102Z,33.87
2018-03-20T13:16:54.529Z,34.21
2018-03-20T13:19:21.995Z,34.77
2018-03-20T13:21:49.447Z,34.76
2018-03-20T13:24:16.914Z,34.65
2018-03-20T13:26:44.399Z,34.22
2018-03-20T13:29:11.841Z,35.01
2018-03-20T13:31:39.447Z,35.10
2018-03-20T13:34:06.963Z,36.40
2018-03-20T13:36:34.406Z,37.83
2018-03-20T13:39:01.855Z,37.78
2018-03-20T13:41:29.341Z,37.13
2018-03-20T13:43:56.824Z,36.87
2018-03-20T13:46:24.350Z,37.58
2018-03-20T13:48:51.781Z,37.11
2018-03-20T13:51:19.188Z,37.05
2018-03-20T13:53:46.634Z,36.96
2018-03-20T13:56:14.096Z,36.97
2018-03-20T13:58:41.623Z,36.42
2018-03-20T14:01:09.172Z,36.13
2018-03-20T14:03:36.605Z,36.95
2018-03-20T14:06:04.080Z,37.48
2018-03-20T14:08:31.741Z,39.33
2018-03-20T14:10:59.278Z,39.19
2018-03-20T14:13:26.713Z,38.97
2018-03-20T14:15:54.151Z,37.85
2018-03-20T14:18:21.917Z,37.24
2018-03-20T14:20:49.320Z,37.20
2018-03-20T14:23:16.808Z,37.20
2018-03-20T14:25:44.453Z,37.31
2018-03-20T14:28:11.896Z,36.59
2018-03-20T14:30:39.356Z,37.10
2018-03-20T14:33:07.309Z,36.69
2018-03-20T14:35:34.715Z,36.27
2018-03-20T14:38:02.147Z,36.94
2018-03-20T14:40:29.706Z,36.98
2018-03-20T14:42:57.242Z,36.74
2018-03-20T14:45:24.703Z,37.24
2018-03-20T14:47:52.339Z,37.26
2018-03-20T14:50:19.959Z,37.80
2018-03-20T14:52:47.449Z,37.99
2018-03-20T14:55:14.882Z,38.21
2018-03-20T14:57:42.332Z,37.98
2018-03-20T15:00:09.934Z,38.19
2018-03-20T15:02:37.736Z,38.13
2018-03-20T15:05:06.168Z,37.90
2018-03-20T15:07:33.570Z,37.94
2018-03-20T15:10:01.905Z,38.11
2018-03-20T15:12:29.331Z,38.80
2018-03-20T15:14:56.800Z,38.70
2018-03-20T15:17:24.248Z,38.17
2018-03-20T15:19:51.701Z,38.56
2018-03-20T15:22:19.095Z,38.55
2018-03-20T15:24:46.654Z,38.42
2018-03-20T15:27:14.099Z,38.29
2018-03-20T15:29:41.532Z,38.58
2018-03-20T15:32:08.988Z,38.08
2018-03-20T15:34:36.439Z,38.27
2018-03-20T15:37:03.966Z,37.42
2018-03-20T15:39:31.387Z,37.08
2018-03-20T15:41:58.830Z,36.61
2018-03-20T15:44:26.286Z,36.88
2018-03-20T15:46:54.330Z,37.79
2018-03-20T15:49:21.752Z,37.87
2018-03-20T15:51:49.467Z,37.94
2018-03-20T15:54:16.931Z,37.96
2018-03-20T15:56:44.604Z,38.71
2018-03-20T15:59:12.023Z,38.74
2018-03-20T16:01:39.474Z,38.13
2018-03-20T16:04:07.020Z,37.24
2018-03-20T16:06:34.502Z,37.12
2018-03-20T16:09:01.928Z,37.26
2018-03-20T16:11:29.429Z,37.45
2018-03-20T16:13:56.853Z,37.76
2018-03-20T16:16:24.553Z,37.52
2018-03-20T16:18:51.995Z,36.83
2018-03-20T16:21:19.507Z,36.63
2018-03-20T16:23:47.039Z,36.61
2018-03-20T16:26:14.484Z,37.49
2018-03-20T16:28:42.036Z,37.54
2018-03-20T16:31:09.769Z,38.04
2018-03-20T16:33:37.258Z,37.95
2018-03-20T16:36:04.692Z,38.33
2018-03-20T16:38:32.176Z,38.79
2018-03-20T16:40:59.789Z,39.01
2018-03-20T16:43:27.708Z,39.23
2018-03-20T16:45:55.149Z,39.04
2018-03-20T16:48:22.798Z,38.83
2018-03-20T16:50:50.566Z,38.37
2018-03-20T16:53:18.007Z,39.10
2018-03-20T16:55:46.119Z,38.45
2018-03-20T16:58:13.587Z,38.70
2018-03-20T17:00:40.974Z,39.00
2018-03-20T17:03:09.226Z,39.75
2018-03-20T17:05:36.798Z,40.16
2018-03-20T17:08:04.326Z,40.21
2018-03-20T17:10:31.772Z,40.50
2018-03-20T17:12:59.439Z,40.85
2018-03-20T17:15:26.884Z,41.51
2018-03-20T17:17:54.309Z,40.27
2018-03-20T17:20:21.932Z,39.69
2018-03-20T17:22:49.361Z,39.27
2018-03-20T17:25:16.827Z,39.33
2018-03-20T17:27:44.222Z,39.86
2018-03-20T17:30:12.182Z,40.31
2018-03-20T17:32:39.765Z,41.15
2018-03-20T17:35:07.269Z,40.88
2018-03-20T17:37:35.557Z,40.17
2018-03-20T17:40:03.017Z,40.51
2018-03-20T17:42:30.502Z,40.87
2018-03-20T17:44:58.306Z,40.62
2018-03-20T17:47:25.791Z,41.25
2018-03-20T17:49:53.252Z,41.45
2018-03-20T17:52:20.723Z,41.95
2018-03-20T17:54:48.346Z,41.80
2018-03-20T17:57:15.949Z,42.55
2018-03-20T17:59:43.616Z,43.10
2018-03-20T18:02:11.861Z,42.85
2018-03-20T18:04:39.385Z,43.17
2018-03-20T18:07:06.818Z,43.71
2018-03-20T18:09:34.289Z,44.26
2018-03-20T18:12:01.794Z,44.39
2018-03-20T18:17:21.385Z,45.22
2018-03-20T18:19:48.800Z,44.87
2018-03-20T18:22:16.196Z,44.90
2018-03-20T18:24:43.629Z,45.22
2018-03-20T18:27:11.114Z,45.11
2018-03-20T18:29:39.046Z,45.21
2018-03-20T18:32:06.534Z,45.29
2018-03-20T18:34:33.980Z,45.84
2018-03-20T18:37:01.429Z,46.00
2018-03-20T18:39:28.878Z,46.18
2018-03-20T18:41:56.394Z,46.82
2018-03-20T18:44:23.817Z,46.48
2018-03-20T18:46:51.357Z,46.09
2018-03-20T18:49:18.780Z,46.53
2018-03-20T18:51:46.238Z,46.67
2018-03-20T18:54:14.659Z,46.59
2018-03-20T18:56:42.067Z,46.83
2018-03-20T18:59:09.536Z,46.71
2018-03-20T19:01:37.152Z,47.30
2018-03-20T19:04:04.615Z,47.81
2018-03-20T19:06:32.060Z,47.45
2018-03-20T19:08:59.897Z,47.24
2018-03-20T19:11:27.284Z,47.72
2018-03-20T19:13:54.746Z,48.38
2018-03-20T19:16:22.204Z,49.50
2018-03-20T19:18:49.662Z,49.62
2018-03-20T19:21:17.077Z,49.92
2018-03-20T19:23:50.205Z,50.67
2018-03-20T19:26:17.696Z,50.61
2018-03-20T19:28:45.175Z,50.71
2018-03-20T19:31:12.631Z,51.09
2018-03-20T19:33:40.094Z,51.85
2018-03-20T19:36:07.547Z,52.25
2018-03-20T19:38:34.980Z,52.44
2018-03-20T19:41:02.477Z,52.92
2018-03-20T19:43:29.856Z,52.68
2018-03-20T19:45:57.296Z,52.83
2018-03-20T19:48:24.722Z,53.13
2018-03-20T19:50:52.310Z,53.41
2018-03-20T19:53:19.718Z,53.58
2018-03-20T19:55:47.146Z,53.53
2018-03-20T19:58:14.564Z,53.79
2018-03-20T20:00:42.022Z,54.40
2018-03-20T20:03:09.515Z,54.53
2018-03-20T20:05:37.000Z,54.54
2018-03-20T20:08:04.427Z,54.44
2018-03-20T20:10:31.821Z,54.51
2018-03-20T20:12:59.265Z,54.75
2018-03-20T20:15:26.700Z,55.76
2018-03-20T20:17:54.137Z,56.68
2018-03-20T20:20:21.662Z,56.69
2018-03-20T20:22:49.161Z,57.57
2018-03-20T20:25:16.597Z,57.61
2018-03-20T20:27:44.066Z,57.21
2018-03-20T20:30:11.538Z,57.62
2018-03-20T20:32:39.002Z,57.60
2018-03-20T20:35:06.747Z,57.95
2018-03-20T20:37:34.213Z,57.70
2018-03-20T20:40:01.642Z,58.30
2018-03-20T20:42:29.331Z,58.65
2018-03-20T20:44:56.799Z,59.78
2018-03-20T20:47:24.276Z,60.11
2018-03-20T20:49:52.543Z,60.50
2018-03-20T20:52:19.973Z,61.06
2018-03-20T20:54:47.400Z,61.10
2018-03-20T20:57:14.850Z,60.96
2018-03-20T20:59:42.368Z,60.92
2018-03-20T21:02:09.830Z,61.26
2018-03-20T21:04:37.262Z,61.79
2018-03-20T21:07:05.536Z,61.33
2018-03-20T21:09:33.251Z,60.72
2018-03-20T21:12:00.712Z,60.76
2018-03-20T21:14:28.153Z,61.44
2018-03-20T21:16:55.680Z,60.94
2018-03-20T21:19:23.095Z,61.46
2018-03-20T21:21:50.801Z,61.75
2018-03-20T21:24:18.200Z,61.84
2018-03-20T21:26:45.825Z,61.24
2018-03-20T21:29:13.422Z,60.49
2018-03-20T21:31:40.856Z,61.17
2018-03-20T21:34:08.285Z,61.85
2018-03-20T21:36:35.714Z,61.83
2018-03-20T21:39:03.150Z,62.21
2018-03-20T21:41:30.577Z,62.14
2018-03-20T21:43:57.978Z,62.33
2018-03-20T21:46:25.469Z,62.12
2018-03-20T21:48:53.001Z,62.56
2018-03-20T21:51:20.499Z,62.87
2018-03-20T21:53:47.970Z,62.32
2018-03-20T21:56:15.455Z,62.50
2018-03-20T21:58:42.898Z,62.27
2018-03-20T22:01:10.362Z,62.12
2018-03-20T22:03:37.813Z,62.43
2018-03-20T22:06:05.231Z,62.31
2018-03-20T22:08:32.874Z,62.56
2018-03-20T22:11:00.564Z,62.13
2018-03-20T22:13:28.023Z,61.10
2018-03-20T22:15:55.445Z,61.43
2018-03-20T22:18:22.896Z,61.26
2018-03-20T22:20:50.365Z,61.38
2018-03-20T22:23:17.792Z,61.19
2018-03-20T22:25:45.214Z,60.98
2018-03-20T22:28:13.367Z,61.23
2018-03-20T22:30:40.798Z,61.28
2018-03-20T22:33:08.208Z,61.75
2018-03-20T22:35:35.729Z,61.69
2018-03-20T22:38:04.737Z,61.69
2018-03-20T22:40:32.194Z,61.33
2018-03-20T22:42:59.584Z,61.49
2018-03-20T22:45:27.034Z,61.44
2018-03-20T22:47:54.493Z,61.76
2018-03-20T22:50:21.911Z,61.29
2018-03-20T22:52:49.394Z,61.51
2018-03-20T22:55:16.837Z,61.09
2018-03-20T22:57:44.310Z,61.19
2018-03-20T23:00:23.431Z,61.38
2018-03-20T23:02:50.953Z,60.88
2018-03-20T23:05:18.483Z,60.69
2018-03-20T23:07:45.904Z,60.13
2018-03-20T23:10:13.313Z,60.42
2018-03-20T23:12:40.746Z,61.17
2018-03-20T23:15:08.160Z,61.75
2018-03-20T23:17:35.553Z,61.54
2018-03-20T23:20:03.026Z,61.42
2018-03-20T23:22:30.470Z,61.03
2018-03-20T23:24:57.931Z,60.86
2018-03-20T23:27:25.429Z,60.99
2018-03-20T23:29:52.918Z,60.49
2018-03-20T23:32:20.337Z,60.32
2018-03-20T23:34:48.028Z,60.60
2018-03-20T23:37:15.457Z,60.46
2018-03-20T23:39:42.852Z,61.00
2018-03-20T23:42:10.255Z,61.55
2018-03-20T23:44:37.695Z,62.28
2018-03-20T23:47:05.688Z,62.11
2018-03-20T23:49:33.119Z,61.69
2018-03-20T23:52:00.549Z,62.35
2018-03-20T23:54:27.973Z,62.27
2018-03-20T23:56:55.426Z,61.99
2018-03-20T23:59:22.883Z,63.09
